sensor_id;sensor_type;location;lat;lon;timestamp;pressure;altitude;pressure_sealevel;temperature;humidity
30421;BME280;17218;54.070;10.012;2023-07-20T00:00:57;100992.19;;;13.87;100.00
30421;BME280;17218;54.070;10.012;2023-07-20T00:03:23;101000.84;;;13.87;100.00
30421;BME280;17218;54.070;10.012;2023-07-20T00:05:51;101009.56;;;13.85;100.00
30421;BME280;17218;54.070;10.012;2023-07-20T00:08:18;100996.56;;;13.85;100.00
30421;BME280;17218;54.070;10.012;2023-07-20T00:10:44;101002.66;;;13.82;100.00
30421;BME280;17218;54.070;10.012;2023-07-20T00:13:11;101004.38;;;13.81;100.00
30421;BME280;17218;54.070;10.012;2023-07-20T00:15:38;101004.38;;;13.81;100.00
30421;BME280;17218;54.070;10.012;2023-07-20T00:18:05;101001.84;;;13.78;100.00
30421;BME280;17218;54.070;10.012;2023-07-20T00:20:31;100993.16;;;13.81;100.00
30421;BME280;17218;54.070;10.012;2023-07-20T00:22:59;100998.28;;;13.84;100.00
30421;BME280;17218;54.070;10.012;2023-07-20T00:25:26;100992.09;;;13.91;100.00
30421;BME280;17218;54.070;10.012;2023-07-20T00:27:52;100989.41;;;13.96;100.00
30421;BME280;17218;54.070;10.012;2023-07-20T00:30:19;100990.22;;;13.98;100.00
30421;BME280;17218;54.070;10.012;2023-07-20T00:32:45;101000.59;;;14.01;100.00
30421;BME280;17218;54.070;10.012;2023-07-20T00:35:12;100999.72;;;14.02;100.00
30421;BME280;17218;54.070;10.012;2023-07-20T00:37:39;101002.25;;;14.05;100.00
30421;BME280;17218;54.070;10.012;2023-07-20T00:40:08;100990.97;;;14.06;100.00
30421;BME280;17218;54.070;10.012;2023-07-20T00:42:34;100990.03;;;14.09;100.00
30421;BME280;17218;54.070;10.012;2023-07-20T00:45:01;100985.78;;;14.05;100.00
30421;BME280;17218;54.070;10.012;2023-07-20T00:47:27;100995.34;;;14.04;100.00
30421;BME280;17218;54.070;10.012;2023-07-20T00:49:54;100985.78;;;14.05;100.00
30421;BME280;17218;54.070;10.012;2023-07-20T00:52:23;100991.94;;;14.01;100.00
30421;BME280;17218;54.070;10.012;2023-07-20T00:54:51;100997.06;;;14.04;100.00
30421;BME280;17218;54.070;10.012;2023-07-20T00:57:24;101005.66;;;14.09;100.00
30421;BME280;17218;54.070;10.012;2023-07-20T00:59:51;100997.03;;;14.07;100.00
30421;BME280;17218;54.070;10.012;2023-07-20T01:02:17;100995.34;;;14.04;100.00
30421;BME280;17218;54.070;10.012;2023-07-20T01:04:44;100994.47;;;14.04;100.00
30421;BME280;17218;54.070;10.012;2023-07-20T01:07:13;101003.25;;;13.98;100.00
30421;BME280;17218;54.070;10.012;2023-07-20T01:09:44;101004.09;;;14.00;100.00
30421;BME280;17218;54.070;10.012;2023-07-20T01:12:18;101000.50;;;14.06;100.00
30421;BME280;17218;54.070;10.012;2023-07-20T01:14:50;101004.19;;;13.95;100.00
30421;BME280;17218;54.070;10.012;2023-07-20T01:17:17;101005.94;;;13.93;100.00
30421;BME280;17218;54.070;10.012;2023-07-20T01:19:43;101006.88;;;13.89;100.00
30421;BME280;17218;54.070;10.012;2023-07-20T01:22:21;100998.19;;;13.89;100.00
30421;BME280;17218;54.070;10.012;2023-07-20T01:25:13;101008.63;;;13.90;100.00
30421;BME280;17218;54.070;10.012;2023-07-20T01:28:14;100998.28;;;13.84;100.00
30421;BME280;17218;54.070;10.012;2023-07-20T01:30:52;100987.00;;;13.83;100.00
30421;BME280;17218;54.070;10.012;2023-07-20T01:33:24;100996.59;;;13.83;100.00
30421;BME280;17218;54.070;10.012;2023-07-20T01:35:54;100994.84;;;13.82;100.00
30421;BME280;17218;54.070;10.012;2023-07-20T01:38:21;101000.97;;;13.79;100.00
30421;BME280;17218;54.070;10.012;2023-07-20T01:40:49;101001.00;;;13.76;100.00
30421;BME280;17218;54.070;10.012;2023-07-20T01:43:17;101000.22;;;13.71;100.00
30421;BME280;17218;54.070;10.012;2023-07-20T01:45:43;101001.16;;;13.68;100.00
30421;BME280;17218;54.070;10.012;2023-07-20T01:48:09;100996.81;;;13.67;100.00
30421;BME280;17218;54.070;10.012;2023-07-20T01:50:38;100998.59;;;13.65;100.00
30421;BME280;17218;54.070;10.012;2023-07-20T01:53:04;101002.09;;;13.64;100.00
30421;BME280;17218;54.070;10.012;2023-07-20T01:55:31;101004.72;;;13.61;100.00
30421;BME280;17218;54.070;10.012;2023-07-20T01:57:57;101002.16;;;13.59;100.00
30421;BME280;17218;54.070;10.012;2023-07-20T02:00:25;101006.44;;;13.62;100.00
30421;BME280;17218;54.070;10.012;2023-07-20T02:02:51;101001.16;;;13.67;100.00
30421;BME280;17218;54.070;10.012;2023-07-20T02:05:18;101000.25;;;13.69;100.00
30421;BME280;17218;54.070;10.012;2023-07-20T02:07:46;101000.19;;;13.74;100.00
30421;BME280;17218;54.070;10.012;2023-07-20T02:10:12;100999.31;;;13.75;100.00
30421;BME280;17218;54.070;10.012;2023-07-20T02:12:39;100994.16;;;13.72;100.00
30421;BME280;17218;54.070;10.012;2023-07-20T02:15:06;100995.06;;;13.69;100.00
30421;BME280;17218;54.070;10.012;2023-07-20T02:17:33;100992.44;;;13.71;100.00
30421;BME280;17218;54.070;10.012;2023-07-20T02:20:00;100991.44;;;13.78;100.00
30421;BME280;17218;54.070;10.012;2023-07-20T02:22:26;100993.13;;;13.82;100.00
30421;BME280;17218;54.070;10.012;2023-07-20T02:24:54;100996.59;;;13.81;100.00
30421;BME280;17218;54.070;10.012;2023-07-20T02:27:20;100989.63;;;13.82;100.00
30421;BME280;17218;54.070;10.012;2023-07-20T02:29:47;100983.53;;;13.85;100.00
30421;BME280;17218;54.070;10.012;2023-07-20T02:32:13;100990.38;;;13.89;100.00
30421;BME280;17218;54.070;10.012;2023-07-20T02:34:40;100985.13;;;13.93;100.00
30421;BME280;17218;54.070;10.012;2023-07-20T02:37:07;100986.84;;;13.93;100.00
30421;BME280;17218;54.070;10.012;2023-07-20T02:39:33;100980.75;;;13.95;100.00
30421;BME280;17218;54.070;10.012;2023-07-20T02:42:01;100982.47;;;13.95;100.00
30421;BME280;17218;54.070;10.012;2023-07-20T02:44:27;100985.13;;;13.93;100.00
30421;BME280;17218;54.070;10.012;2023-07-20T02:46:55;100979.00;;;13.96;100.00
30421;BME280;17218;54.070;10.012;2023-07-20T02:49:21;100985.25;;;13.86;100.00
30421;BME280;17218;54.070;10.012;2023-07-20T02:51:48;100985.28;;;13.84;100.00
30421;BME280;17218;54.070;10.012;2023-07-20T02:54:14;100992.16;;;13.88;100.00
30421;BME280;17218;54.070;10.012;2023-07-20T02:56:41;100982.59;;;13.87;100.00
30421;BME280;17218;54.070;10.012;2023-07-20T02:59:09;100995.59;;;13.89;100.00
30421;BME280;17218;54.070;10.012;2023-07-20T03:01:35;100988.63;;;13.91;100.00
30421;BME280;17218;54.070;10.012;2023-07-20T03:04:02;100997.25;;;13.93;100.00
30421;BME280;17218;54.070;10.012;2023-07-20T03:06:29;100990.28;;;13.95;100.00
30421;BME280;17218;54.070;10.012;2023-07-20T03:08:56;100992.06;;;13.93;100.00
30421;BME280;17218;54.070;10.012;2023-07-20T03:11:23;100995.66;;;13.86;100.00
30421;BME280;17218;54.070;10.012;2023-07-20T03:13:49;100996.44;;;13.92;100.00
30421;BME280;17218;54.070;10.012;2023-07-20T03:16:18;100990.38;;;13.89;100.00
30421;BME280;17218;54.070;10.012;2023-07-20T03:18:45;100994.72;;;13.90;100.00
30421;BME280;17218;54.070;10.012;2023-07-20T03:21:12;101003.38;;;13.92;100.00
30421;BME280;17218;54.070;10.012;2023-07-20T03:23:39;100996.53;;;13.86;100.00
30421;BME280;17218;54.070;10.012;2023-07-20T03:26:05;100996.59;;;13.83;100.00
30421;BME280;17218;54.070;10.012;2023-07-20T03:28:33;100992.34;;;13.77;100.00
30421;BME280;17218;54.070;10.012;2023-07-20T03:31:00;100997.56;;;13.74;100.00
30421;BME280;17218;54.070;10.012;2023-07-20T03:33:28;101001.13;;;13.70;100.00
30421;BME280;17218;54.070;10.012;2023-07-20T03:35:56;100998.56;;;13.67;100.00
30421;BME280;17218;54.070;10.012;2023-07-20T03:38:25;101005.63;;;13.60;100.00
30421;BME280;17218;54.070;10.012;2023-07-20T03:47:36;101007.47;;;13.50;100.00
30421;BME280;17218;54.070;10.012;2023-07-20T03:50:04;101009.19;;;13.53;100.00
30421;BME280;17218;54.070;10.012;2023-07-20T03:52:32;100997.94;;;13.49;100.00
30421;BME280;17218;54.070;10.012;2023-07-20T03:54:58;101003.22;;;13.43;100.00
30421;BME280;17218;54.070;10.012;2023-07-20T03:57:25;101001.53;;;13.42;100.00
30421;BME280;17218;54.070;10.012;2023-07-20T03:59:51;101001.59;;;13.39;100.00
30421;BME280;17218;54.070;10.012;2023-07-20T04:02:17;101000.72;;;13.38;100.00
30421;BME280;17218;54.070;10.012;2023-07-20T04:04:44;101004.22;;;13.35;100.00
30421;BME280;17218;54.070;10.012;2023-07-20T04:07:12;101008.59;;;13.32;100.00
30421;BME280;17218;54.070;10.012;2023-07-20T04:09:38;101002.50;;;13.34;100.00
30421;BME280;17218;54.070;10.012;2023-07-20T04:12:06;100999.88;;;13.36;100.00
30421;BME280;17218;54.070;10.012;2023-07-20T04:14:33;101007.66;;;13.38;100.00
30421;BME280;17218;54.070;10.012;2023-07-20T04:16:59;101008.41;;;13.44;100.00
30421;BME280;17218;54.070;10.012;2023-07-20T04:19:26;101007.53;;;13.45;100.00
30421;BME280;17218;54.070;10.012;2023-07-20T04:21:52;101004.06;;;13.45;100.00
30421;BME280;17218;54.070;10.012;2023-07-20T04:24:20;101006.66;;;13.46;100.00
30421;BME280;17218;54.070;10.012;2023-07-20T04:26:47;101011.81;;;13.53;100.00
30421;BME280;17218;54.070;10.012;2023-07-20T04:29:13;101010.91;;;13.52;100.00
30421;BME280;17218;54.070;10.012;2023-07-20T04:31:40;101012.59;;;13.58;100.00
30421;BME280;17218;54.070;10.012;2023-07-20T04:34:06;101015.94;;;13.65;100.00
30421;BME280;17218;54.070;10.012;2023-07-20T04:36:33;101007.19;;;13.72;100.00
30421;BME280;17218;54.070;10.012;2023-07-20T04:38:59;101010.63;;;13.73;100.00
30421;BME280;17218;54.070;10.012;2023-07-20T04:41:27;101021.84;;;13.76;100.00
30421;BME280;17218;54.070;10.012;2023-07-20T04:43:53;101018.44;;;13.73;100.00
30421;BME280;17218;54.070;10.012;2023-07-20T04:46:20;101020.00;;;13.81;100.00
30421;BME280;17218;54.070;10.012;2023-07-20T04:48:47;101025.16;;;13.86;100.00
30421;BME280;17218;54.070;10.012;2023-07-20T04:51:14;101013.00;;;13.87;100.00
30421;BME280;17218;54.070;10.012;2023-07-20T04:53:42;101025.94;;;13.91;100.00
30421;BME280;17218;54.070;10.012;2023-07-20T04:56:09;101022.41;;;13.95;100.00
30421;BME280;17218;54.070;10.012;2023-07-20T04:58:37;101011.88;;;14.03;100.00
30421;BME280;17218;54.070;10.012;2023-07-20T05:01:03;101022.13;;;14.13;100.00
30421;BME280;17218;54.070;10.012;2023-07-20T05:03:32;101023.72;;;14.20;100.00
30421;BME280;17218;54.070;10.012;2023-07-20T05:05:58;101023.69;;;14.22;100.00
30421;BME280;17218;54.070;10.012;2023-07-20T05:08:25;101030.56;;;14.27;100.00
30421;BME280;17218;54.070;10.012;2023-07-20T05:10:52;101034.78;;;14.33;100.00
30421;BME280;17218;54.070;10.012;2023-07-20T05:13:19;101025.91;;;14.43;100.00
30421;BME280;17218;54.070;10.012;2023-07-20T05:15:46;101031.13;;;14.43;100.00
30421;BME280;17218;54.070;10.012;2023-07-20T05:18:13;101024.31;;;14.36;100.00
30421;BME280;17218;54.070;10.012;2023-07-20T05:20:45;101018.19;;;14.37;100.00
30421;BME280;17218;54.070;10.012;2023-07-20T05:23:12;101023.47;;;14.34;100.00
30421;BME280;17218;54.070;10.012;2023-07-20T05:25:38;101026.94;;;14.35;100.00
30421;BME280;17218;54.070;10.012;2023-07-20T05:28:05;101024.06;;;14.49;100.00
30421;BME280;17218;54.070;10.012;2023-07-20T05:30:31;101023.78;;;14.63;100.00
30421;BME280;17218;54.070;10.012;2023-07-20T05:32:59;101011.59;;;14.65;100.00
30421;BME280;17218;54.070;10.012;2023-07-20T05:35:26;101007.91;;;14.75;100.00
30421;BME280;17218;54.070;10.012;2023-07-20T05:37:52;101009.53;;;14.81;100.00
30421;BME280;17218;54.070;10.012;2023-07-20T05:40:19;101013.00;;;14.82;100.00
30421;BME280;17218;54.070;10.012;2023-07-20T05:42:46;101009.53;;;14.83;100.00
30421;BME280;17218;54.070;10.012;2023-07-20T05:45:14;101007.81;;;14.80;100.00
30421;BME280;17218;54.070;10.012;2023-07-20T05:47:41;101007.81;;;14.80;100.00
30421;BME280;17218;54.070;10.012;2023-07-20T05:50:10;101007.66;;;14.89;100.00
30421;BME280;17218;54.070;10.012;2023-07-20T05:52:36;101002.13;;;15.03;100.00
30421;BME280;17218;54.070;10.012;2023-07-20T05:55:05;101000.09;;;15.17;100.00
30421;BME280;17218;54.070;10.012;2023-07-20T05:57:31;101006.97;;;15.21;100.00
30421;BME280;17218;54.070;10.012;2023-07-20T05:59:58;100994.84;;;15.20;100.00
30421;BME280;17218;54.070;10.012;2023-07-20T06:02:24;101003.50;;;15.22;100.00
30421;BME280;17218;54.070;10.012;2023-07-20T06:04:51;100989.47;;;15.26;100.00
30421;BME280;17218;54.070;10.012;2023-07-20T06:07:18;100982.41;;;15.30;100.00
30421;BME280;17218;54.070;10.012;2023-07-20T06:09:45;100990.19;;;15.33;100.00
30421;BME280;17218;54.070;10.012;2023-07-20T06:12:11;100984.03;;;15.35;100.00
30421;BME280;17218;54.070;10.012;2023-07-20T06:14:38;100983.06;;;15.40;100.00
30421;BME280;17218;54.070;10.012;2023-07-20T06:17:05;100985.50;;;15.47;100.00
30421;BME280;17218;54.070;10.012;2023-07-20T06:19:31;100985.28;;;15.55;100.00
30421;BME280;17218;54.070;10.012;2023-07-20T06:21:58;100989.50;;;15.62;100.00
30421;BME280;17218;54.070;10.012;2023-07-20T06:24:26;100982.53;;;15.61;100.00
30421;BME280;17218;54.070;10.012;2023-07-20T06:26:52;100987.63;;;15.68;100.00
30421;BME280;17218;54.070;10.012;2023-07-20T06:29:19;100987.41;;;15.77;100.00
30421;BME280;17218;54.070;10.012;2023-07-20T06:31:45;100976.66;;;15.88;100.00
30421;BME280;17218;54.070;10.012;2023-07-20T06:34:12;100978.56;;;15.81;100.00
30421;BME280;17218;54.070;10.012;2023-07-20T06:36:38;100981.91;;;15.88;100.00
30421;BME280;17218;54.070;10.012;2023-07-20T06:39:05;100985.28;;;15.92;100.00
30421;BME280;17218;54.070;10.012;2023-07-20T06:41:33;100987.75;;;15.96;100.00
30421;BME280;17218;54.070;10.012;2023-07-20T06:43:59;100992.63;;;15.77;100.00
30421;BME280;17218;54.070;10.012;2023-07-20T06:46:26;100978.41;;;15.88;100.00
30421;BME280;17218;54.070;10.012;2023-07-20T06:48:53;100981.50;;;16.04;100.00
30421;BME280;17218;54.070;10.012;2023-07-20T06:51:20;100983.09;;;16.09;100.00
30421;BME280;17218;54.070;10.012;2023-07-20T06:53:47;100977.31;;;15.96;100.00
30421;BME280;17218;54.070;10.012;2023-07-20T06:56:13;100972.91;;;15.98;100.00
30421;BME280;17218;54.070;10.012;2023-07-20T06:58:41;100970.25;;;16.02;100.00
30421;BME280;17218;54.070;10.012;2023-07-20T07:01:08;100979.81;;;16.03;100.00
30421;BME280;17218;54.070;10.012;2023-07-20T07:03:34;100980.63;;;16.05;100.00
30421;BME280;17218;54.070;10.012;2023-07-20T07:06:02;100976.78;;;16.18;100.00
30421;BME280;17218;54.070;10.012;2023-07-20T07:08:28;100973.06;;;16.27;100.00
30421;BME280;17218;54.070;10.012;2023-07-20T07:10:55;100964.28;;;16.30;100.00
30421;BME280;17218;54.070;10.012;2023-07-20T07:13:21;100969.28;;;16.38;100.00
30421;BME280;17218;54.070;10.012;2023-07-20T07:15:49;100976.81;;;16.49;100.00
30421;BME280;17218;54.070;10.012;2023-07-20T07:18:16;100955.03;;;16.48;100.00
30421;BME280;17218;54.070;10.012;2023-07-20T07:20:50;100968.22;;;16.45;100.00
30421;BME280;17218;54.070;10.012;2023-07-20T07:23:17;100962.56;;;16.59;100.00
30421;BME280;17218;54.070;10.012;2023-07-20T07:25:43;100955.91;;;16.79;100.00
30421;BME280;17218;54.070;10.012;2023-07-20T07:28:10;100953.44;;;16.74;100.00
30421;BME280;17218;54.070;10.012;2023-07-20T07:30:36;100954.78;;;16.88;100.00
30421;BME280;17218;54.070;10.012;2023-07-20T07:33:05;100959.63;;;17.00;100.00
30421;BME280;17218;54.070;10.012;2023-07-20T07:35:31;100966.44;;;17.06;100.00
30421;BME280;17218;54.070;10.012;2023-07-20T07:37:57;100969.69;;;17.14;100.00
30421;BME280;17218;54.070;10.012;2023-07-20T07:40:24;100971.13;;;17.25;100.00
30421;BME280;17218;54.070;10.012;2023-07-20T07:42:50;100965.38;;;17.13;100.00
30421;BME280;17218;54.070;10.012;2023-07-20T07:45:17;100972.75;;;16.99;100.00
30421;BME280;17218;54.070;10.012;2023-07-20T07:47:43;100974.56;;;16.97;100.00
30421;BME280;17218;54.070;10.012;2023-07-20T07:50:11;100980.13;;;16.86;100.00
30421;BME280;17218;54.070;10.012;2023-07-20T07:52:38;100986.44;;;16.78;100.00
30421;BME280;17218;54.070;10.012;2023-07-20T07:55:05;100979.41;;;16.80;100.00
30421;BME280;17218;54.070;10.012;2023-07-20T07:57:32;100977.28;;;16.63;100.00
30421;BME280;17218;54.070;10.012;2023-07-20T07:59:59;100984.91;;;16.71;100.00
30421;BME280;17218;54.070;10.012;2023-07-20T08:02:25;100976.19;;;16.71;100.00
30421;BME280;17218;54.070;10.012;2023-07-20T08:04:51;100980.19;;;16.84;100.00
30421;BME280;17218;54.070;10.012;2023-07-20T08:07:20;100982.31;;;17.00;100.00
30421;BME280;17218;54.070;10.012;2023-07-20T08:09:46;100970.19;;;16.97;100.00
30421;BME280;17218;54.070;10.012;2023-07-20T08:12:12;100965.38;;;17.13;100.00
30421;BME280;17218;54.070;10.012;2023-07-20T08:14:42;100975.16;;;17.35;100.00
30421;BME280;17218;54.070;10.012;2023-07-20T08:17:09;100970.03;;;17.32;100.00
30421;BME280;17218;54.070;10.012;2023-07-20T08:19:37;100966.44;;;17.35;100.00
30421;BME280;17218;54.070;10.012;2023-07-20T08:22:05;100970.19;;;17.55;100.00
30421;BME280;17218;54.070;10.012;2023-07-20T08:24:34;100976.00;;;17.63;100.00
30421;BME280;17218;54.070;10.012;2023-07-20T08:27:01;100986.28;;;17.69;100.00
30421;BME280;17218;54.070;10.012;2023-07-20T08:29:27;100989.03;;;17.64;100.00
30421;BME280;17218;54.070;10.012;2023-07-20T08:31:54;100985.78;;;17.58;100.00
30421;BME280;17218;54.070;10.012;2023-07-20T08:34:20;100984.97;;;17.56;100.00
30421;BME280;17218;54.070;10.012;2023-07-20T08:36:47;100993.69;;;17.56;100.00
30421;BME280;17218;54.070;10.012;2023-07-20T08:39:13;100980.03;;;17.46;100.00
30421;BME280;17218;54.070;10.012;2023-07-20T08:41:42;100981.59;;;17.52;100.00
30421;BME280;17218;54.070;10.012;2023-07-20T08:44:09;100974.69;;;17.49;100.00
30421;BME280;17218;54.070;10.012;2023-07-20T08:46:37;100985.59;;;17.64;100.00
30421;BME280;17218;54.070;10.012;2023-07-20T08:49:04;100983.63;;;17.71;100.00
30421;BME280;17218;54.070;10.012;2023-07-20T08:51:33;100993.69;;;17.83;100.00
30421;BME280;17218;54.070;10.012;2023-07-20T08:53:59;100975.88;;;17.68;100.00
30421;BME280;17218;54.070;10.012;2023-07-20T08:56:26;100985.22;;;17.75;100.00
30421;BME280;17218;54.070;10.012;2023-07-20T08:58:54;100981.78;;;17.46;100.00
30421;BME280;17218;54.070;10.012;2023-07-20T09:01:22;100983.94;;;17.34;100.00
30421;BME280;17218;54.070;10.012;2023-07-20T09:03:49;100984.69;;;17.38;100.00
30421;BME280;17218;54.070;10.012;2023-07-20T09:06:15;100995.56;;;17.52;100.00
30421;BME280;17218;54.070;10.012;2023-07-20T09:08:42;100988.25;;;17.62;100.00
30421;BME280;17218;54.070;10.012;2023-07-20T09:11:12;100985.06;;;17.80;100.00
30421;BME280;17218;54.070;10.012;2023-07-20T09:13:38;100983.84;;;17.90;100.00
30421;BME280;17218;54.070;10.012;2023-07-20T09:16:06;100994.44;;;18.12;100.00
30421;BME280;17218;54.070;10.012;2023-07-20T09:18:33;100985.25;;;18.26;100.00
30421;BME280;17218;54.070;10.012;2023-07-20T09:21:02;100996.31;;;18.58;100.00
30421;BME280;17218;54.070;10.012;2023-07-20T09:23:32;100988.41;;;18.60;100.00
30421;BME280;17218;54.070;10.012;2023-07-20T09:25:59;100996.63;;;18.51;100.00
30421;BME280;17218;54.070;10.012;2023-07-20T09:28:26;101010.44;;;18.56;100.00
30421;BME280;17218;54.070;10.012;2023-07-20T09:30:54;101013.94;;;18.55;100.00
30421;BME280;17218;54.070;10.012;2023-07-20T09:33:24;101007.97;;;18.51;100.00
30421;BME280;17218;54.070;10.012;2023-07-20T09:35:50;101015.00;;;18.51;100.00
30421;BME280;17218;54.070;10.012;2023-07-20T09:38:20;101011.56;;;18.48;100.00
30421;BME280;17218;54.070;10.012;2023-07-20T09:40:47;101020.91;;;18.56;100.00
30421;BME280;17218;54.070;10.012;2023-07-20T09:43:15;101005.97;;;18.34;100.00
30421;BME280;17218;54.070;10.012;2023-07-20T09:45:43;101015.88;;;17.98;100.00
30421;BME280;17218;54.070;10.012;2023-07-20T09:48:10;101006.16;;;18.02;100.00
30421;BME280;17218;54.070;10.012;2023-07-20T09:50:48;101002.91;;;17.95;100.00
30421;BME280;17218;54.070;10.012;2023-07-20T09:53:14;101008.13;;;17.95;100.00
30421;BME280;17218;54.070;10.012;2023-07-20T09:55:43;101003.41;;;18.05;100.00
30421;BME280;17218;54.070;10.012;2023-07-20T09:58:10;101014.72;;;18.33;100.00
30421;BME280;17218;54.070;10.012;2023-07-20T10:00:39;101036.78;;;18.53;100.00
30421;BME280;17218;54.070;10.012;2023-07-20T10:03:06;101023.78;;;18.24;100.00
30421;BME280;17218;54.070;10.012;2023-07-20T10:05:33;101025.06;;;18.12;100.00
30421;BME280;17218;54.070;10.012;2023-07-20T10:08:03;101023.75;;;17.98;100.00
30421;BME280;17218;54.070;10.012;2023-07-20T10:10:33;101029.41;;;17.86;100.00
30421;BME280;17218;54.070;10.012;2023-07-20T10:13:01;101038.91;;;17.88;100.00
30421;BME280;17218;54.070;10.012;2023-07-20T10:15:30;101043.91;;;17.96;100.00
30421;BME280;17218;54.070;10.012;2023-07-20T10:18:03;101056.75;;;18.04;100.00
30421;BME280;17218;54.070;10.012;2023-07-20T10:20:31;101046.41;;;17.99;100.00
30421;BME280;17218;54.070;10.012;2023-07-20T10:22:59;101044.47;;;18.06;100.00
30421;BME280;17218;54.070;10.012;2023-07-20T10:25:29;101034.63;;;18.13;100.00
30421;BME280;17218;54.070;10.012;2023-07-20T10:27:56;101039.81;;;18.15;100.00
30421;BME280;17218;54.070;10.012;2023-07-20T10:30:24;101027.66;;;18.12;100.00
30421;BME280;17218;54.070;10.012;2023-07-20T10:32:52;101019.06;;;18.08;100.00
30421;BME280;17218;54.070;10.012;2023-07-20T10:35:19;101025.19;;;18.07;100.00
30421;BME280;17218;54.070;10.012;2023-07-20T10:37:50;101017.72;;;18.22;100.00
30421;BME280;17218;54.070;10.012;2023-07-20T10:40:26;101025.00;;;18.39;100.00
30421;BME280;17218;54.070;10.012;2023-07-20T10:42:58;101026.91;;;18.59;100.00
30421;BME280;17218;54.070;10.012;2023-07-20T10:45:40;101029.88;;;18.74;100.00
30421;BME280;17218;54.070;10.012;2023-07-20T10:48:13;101024.91;;;18.90;100.00
30421;BME280;17218;54.070;10.012;2023-07-20T10:50:40;101026.31;;;18.99;100.00
30421;BME280;17218;54.070;10.012;2023-07-20T10:53:15;101029.69;;;19.03;100.00
30421;BME280;17218;54.070;10.012;2023-07-20T10:55:42;101029.63;;;19.04;100.00
30421;BME280;17218;54.070;10.012;2023-07-20T10:58:12;101047.72;;;19.12;100.00
30421;BME280;17218;54.070;10.012;2023-07-20T11:00:57;101060.97;;;18.85;100.00
30421;BME280;17218;54.070;10.012;2023-07-20T11:03:32;101073.72;;;18.46;100.00
30421;BME280;17218;54.070;10.012;2023-07-20T11:06:29;101077.88;;;17.99;100.00
30421;BME280;17218;54.070;10.012;2023-07-20T11:09:07;101069.09;;;17.73;100.00
30421;BME280;17218;54.070;10.012;2023-07-20T11:11:36;101071.94;;;17.67;100.00
30421;BME280;17218;54.070;10.012;2023-07-20T11:14:04;101071.34;;;17.57;100.00
30421;BME280;17218;54.070;10.012;2023-07-20T11:16:33;101060.56;;;17.39;100.00
30421;BME280;17218;54.070;10.012;2023-07-20T11:19:00;101064.34;;;17.29;100.00
30421;BME280;17218;54.070;10.012;2023-07-20T11:21:27;101057.75;;;17.17;100.00
30421;BME280;17218;54.070;10.012;2023-07-20T11:23:53;101059.66;;;17.10;100.00
30421;BME280;17218;54.070;10.012;2023-07-20T11:26:21;101051.06;;;17.05;100.00
30421;BME280;17218;54.070;10.012;2023-07-20T11:28:48;101058.03;;;17.06;100.00
30421;BME280;17218;54.070;10.012;2023-07-20T11:31:18;101068.25;;;17.15;100.00
30421;BME280;17218;54.070;10.012;2023-07-20T11:33:45;101059.66;;;17.12;100.00
30421;BME280;17218;54.070;10.012;2023-07-20T11:36:12;101071.44;;;17.25;100.00
30421;BME280;17218;54.070;10.012;2023-07-20T11:38:41;101072.03;;;17.64;100.00
30421;BME280;17218;54.070;10.012;2023-07-20T11:41:08;101075.59;;;18.17;100.00
30421;BME280;17218;54.070;10.012;2023-07-20T11:43:34;101076.25;;;18.74;100.00
30421;BME280;17218;54.070;10.012;2023-07-20T11:46:04;101046.47;;;19.23;100.00
30421;BME280;17218;54.070;10.012;2023-07-20T11:48:32;101036.56;;;19.74;100.00
30421;BME280;17218;54.070;10.012;2023-07-20T11:50:59;101031.81;;;19.83;100.00
30421;BME280;17218;54.070;10.012;2023-07-20T11:53:25;101043.03;;;20.09;100.00
30421;BME280;17218;54.070;10.012;2023-07-20T11:55:52;101041.38;;;20.48;100.00
30421;BME280;17218;54.070;10.012;2023-07-20T11:58:18;101032.03;;;20.41;100.00
30421;BME280;17218;54.070;10.012;2023-07-20T12:00:47;101020.78;;;20.58;100.00
30421;BME280;17218;54.070;10.012;2023-07-20T12:03:14;101025.09;;;20.40;100.00
30421;BME280;17218;54.070;10.012;2023-07-20T12:05:42;101041.38;;;20.27;100.00
30421;BME280;17218;54.070;10.012;2023-07-20T12:08:08;101055.94;;;19.93;100.00
30421;BME280;17218;54.070;10.012;2023-07-20T12:10:39;101069.13;;;19.25;100.00
30421;BME280;17218;54.070;10.012;2023-07-20T12:13:09;101070.09;;;18.99;100.00
30421;BME280;17218;54.070;10.012;2023-07-20T12:15:37;101078.13;;;18.70;100.00
30421;BME280;17218;54.070;10.012;2023-07-20T12:18:03;101067.84;;;18.38;100.00
30421;BME280;17218;54.070;10.012;2023-07-20T12:20:31;101071.94;;;17.94;100.00
30421;BME280;17218;54.070;10.012;2023-07-20T12:23:02;101062.03;;;17.75;100.00
30421;BME280;17218;54.070;10.012;2023-07-20T12:25:39;101070.72;;;17.77;100.00
30421;BME280;17218;54.070;10.012;2023-07-20T12:28:07;101069.31;;;17.94;100.00
30421;BME280;17218;54.070;10.012;2023-07-20T12:30:34;101070.28;;;18.44;100.00
30421;BME280;17218;54.070;10.012;2023-07-20T12:33:02;101072.22;;;19.13;100.00
30421;BME280;17218;54.070;10.012;2023-07-20T12:35:29;101052.69;;;19.20;100.00
30421;BME280;17218;54.070;10.012;2023-07-20T12:37:56;101047.31;;;19.68;100.00
30421;BME280;17218;54.070;10.012;2023-07-20T12:40:25;101041.69;;;19.98;100.00